createdAt,value
2023-01-04T00:01:44.036Z,73.05
2023-01-04T00:04:10.612Z,72.87
2023-01-04T00:06:37.131Z,72.78
2023-01-04T00:09:03.733Z,72.16
2023-01-04T00:11:30.237Z,72.65
2023-01-04T00:13:59.290Z,72.46
2023-01-04T00:16:27.923Z,72.48
2023-01-04T00:18:55.623Z,73.29
2023-01-04T00:21:25.964Z,72.54
2023-01-04T00:23:55.058Z,72.70
2023-01-04T00:26:27.176Z,70.28
2023-01-04T00:28:58.818Z,71.82
2023-01-04T00:31:26.936Z,72.83
2023-01-04T00:33:54.929Z,72.77
2023-01-04T00:36:22.112Z,72.64
2023-01-04T00:39:06.839Z,72.63
2023-01-04T00:44:25.894Z,72.67
2023-01-04T00:46:52.551Z,72.53
2023-01-04T00:49:19.141Z,72.41
2023-01-04T00:51:45.607Z,72.21
2023-01-04T00:54:15.839Z,71.56
2023-01-04T00:56:42.822Z,71.87
2023-01-04T00:59:11.902Z,71.44
2023-01-04T01:01:39.717Z,72.08
2023-01-04T01:04:06.684Z,72.18
2023-01-04T01:06:34.312Z,71.98
2023-01-04T01:09:01.251Z,72.26
2023-01-04T01:11:29.194Z,71.59
2023-01-04T01:13:56.263Z,72.17
2023-01-04T01:16:51.629Z,71.87
2023-01-04T01:19:11.062Z,71.97
2023-01-04T01:21:38.121Z,71.99
2023-01-04T01:24:05.819Z,71.85
2023-01-04T01:26:32.686Z,71.40
2023-01-04T01:28:59.566Z,71.44
2023-01-04T01:31:28.474Z,70.95
2023-01-04T01:33:56.768Z,70.54
2023-01-04T01:36:25.862Z,71.06
2023-01-04T01:38:52.937Z,71.24
2023-01-04T01:41:25.815Z,69.91
2023-01-04T01:43:56.984Z,70.04
2023-01-04T01:46:27.577Z,70.08
2023-01-04T01:48:58.985Z,69.68
2023-01-04T01:51:26.849Z,70.85
2023-01-04T01:54:01.050Z,70.92
2023-01-04T01:56:30.573Z,71.14
2023-01-04T01:58:59.637Z,71.23
2023-01-04T02:01:27.252Z,71.87
2023-01-04T02:03:54.781Z,72.56
2023-01-04T02:06:30.571Z,72.10
2023-01-04T02:08:57.484Z,72.83
2023-01-04T02:11:24.204Z,73.08
2023-01-04T02:14:09.812Z,73.46
2023-01-04T02:17:04.323Z,73.34
2023-01-04T02:20:08.076Z,73.07
2023-01-04T02:22:34.393Z,73.11
2023-01-04T02:25:25.671Z,73.90
2023-01-04T02:27:58.225Z,74.32
2023-01-04T02:31:02.226Z,74.25
2023-01-04T02:33:42.195Z,74.73
2023-01-04T02:36:32.770Z,74.87
2023-01-04T02:39:19.530Z,75.19
2023-01-04T02:41:52.672Z,75.58
2023-01-04T02:44:45.857Z,75.75
2023-01-04T02:47:39.884Z,75.96
2023-01-04T02:50:33.310Z,76.08
2023-01-04T02:53:11.526Z,76.40
2023-01-04T02:55:51.771Z,76.46
2023-01-04T03:01:39.488Z,77.23
2023-01-04T03:04:57.794Z,77.41
2023-01-04T03:07:45.940Z,77.49
2023-01-04T03:10:21.100Z,77.52
2023-01-04T03:13:02.475Z,77.81
2023-01-04T03:15:34.254Z,77.82
2023-01-04T03:18:24.158Z,77.92
2023-01-04T03:20:53.730Z,78.36
2023-01-04T03:23:43.412Z,78.39
2023-01-04T03:26:41.418Z,78.40
2023-01-04T03:29:34.688Z,78.82
2023-01-04T03:32:25.598Z,78.66
2023-01-04T03:35:10.923Z,78.81
2023-01-04T03:38:15.487Z,79.32
2023-01-04T03:41:05.873Z,79.14
2023-01-04T03:44:00.044Z,79.32
2023-01-04T03:46:54.191Z,79.50
2023-01-04T03:49:57.556Z,79.77
2023-01-04T03:52:27.864Z,79.91
2023-01-04T03:54:57.595Z,80.15
2023-01-04T03:57:25.603Z,80.19
2023-01-04T03:59:57.919Z,80.38
2023-01-04T04:02:30.521Z,80.37
2023-01-04T04:05:15.702Z,80.37
2023-01-04T04:08:01.044Z,80.37
2023-01-04T04:10:27.589Z,80.30
2023-01-04T04:12:54.124Z,80.16
2023-01-04T04:15:20.672Z,80.25
2023-01-04T04:17:47.270Z,80.16
2023-01-04T04:20:13.870Z,80.20
2023-01-04T04:22:40.924Z,80.31
2023-01-04T04:25:07.906Z,80.22
2023-01-04T04:27:34.472Z,80.20
2023-01-04T04:30:02.563Z,80.39
2023-01-04T04:32:29.103Z,80.78
2023-01-04T04:34:55.832Z,80.51
2023-01-04T04:37:22.304Z,80.44
2023-01-04T04:39:48.871Z,80.66
2023-01-04T04:42:15.289Z,80.64
2023-01-04T04:44:41.771Z,80.74
2023-01-04T04:47:08.303Z,80.73
2023-01-04T04:49:34.929Z,80.88
2023-01-04T04:52:01.516Z,80.96
2023-01-04T04:54:28.020Z,80.99
2023-01-04T04:56:54.589Z,81.00
2023-01-04T04:59:21.232Z,80.82
2023-01-04T05:01:48.178Z,80.77
2023-01-04T05:04:16.961Z,81.07
2023-01-04T05:06:44.487Z,81.21
2023-01-04T05:09:15.108Z,81.40
2023-01-04T05:12:00.612Z,81.34
2023-01-04T05:14:27.973Z,81.45
2023-01-04T05:16:54.707Z,81.73
2023-01-04T05:19:22.145Z,82.01
2023-01-04T05:21:48.724Z,82.00
2023-01-04T05:24:15.236Z,81.81
2023-01-04T05:26:41.795Z,81.75
2023-01-04T05:29:28.287Z,81.70
2023-01-04T05:31:54.983Z,81.57
2023-01-04T05:34:22.390Z,81.43
2023-01-04T05:36:49.137Z,81.34
2023-01-04T05:39:15.843Z,81.38
2023-01-04T05:42:00.949Z,81.15
2023-01-04T05:44:27.495Z,81.37
2023-01-04T05:46:54.015Z,81.37
2023-01-04T05:49:20.915Z,81.47
2023-01-04T05:51:47.467Z,81.42
2023-01-04T05:54:19.357Z,82.04
2023-01-04T05:56:47.755Z,81.60
2023-01-04T05:59:15.047Z,81.78
2023-01-04T06:01:41.685Z,81.66
2023-01-04T06:04:08.404Z,81.72
2023-01-04T06:06:35.170Z,81.75
2023-01-04T06:09:01.638Z,81.66
2023-01-04T06:11:28.191Z,81.85
2023-01-04T06:13:54.710Z,81.81
2023-01-04T06:16:21.320Z,81.77
2023-01-04T06:18:47.836Z,81.58
2023-01-04T06:21:14.435Z,81.59
2023-01-04T06:23:40.972Z,81.69
2023-01-04T06:26:07.530Z,81.74
2023-01-04T06:28:40.360Z,81.94
2023-01-04T06:31:09.071Z,81.97
2023-01-04T06:33:35.751Z,81.78
2023-01-04T06:36:02.583Z,81.92
2023-01-04T06:38:29.223Z,82.06
2023-01-04T06:40:55.693Z,81.81
2023-01-04T06:43:22.674Z,81.94
2023-01-04T06:45:49.248Z,82.12
2023-01-04T06:48:18.133Z,81.85
2023-01-04T06:50:45.011Z,81.78
2023-01-04T06:53:12.527Z,81.77
2023-01-04T06:55:39.035Z,81.81
2023-01-04T06:58:05.467Z,81.98
2023-01-04T07:00:32.053Z,81.83
2023-01-04T07:03:14.744Z,81.98
2023-01-04T07:05:42.631Z,81.92
2023-01-04T07:08:09.203Z,81.65
2023-01-04T07:10:35.927Z,81.58
2023-01-04T07:13:02.742Z,81.62
2023-01-04T07:15:38.028Z,81.61
2023-01-04T07:18:06.778Z,81.93
2023-01-04T07:20:33.259Z,81.64
2023-01-04T07:22:59.773Z,81.44
2023-01-04T07:25:26.440Z,81.09
2023-01-04T07:27:53.909Z,81.04
2023-01-04T07:30:22.144Z,81.11
2023-01-04T07:32:49.608Z,81.13
2023-01-04T07:35:16.175Z,81.29
2023-01-04T07:37:43.633Z,81.19
2023-01-04T07:40:11.042Z,81.61
2023-01-04T07:42:38.151Z,81.77
2023-01-04T07:45:06.558Z,81.92
2023-01-04T07:47:33.356Z,81.95
2023-01-04T07:50:00.263Z,82.05
2023-01-04T07:52:27.423Z,82.13
2023-01-04T07:54:54.007Z,82.10
2023-01-04T07:57:20.541Z,82.39
2023-01-04T07:59:47.058Z,82.35
2023-01-04T08:02:13.949Z,82.50
2023-01-04T08:04:40.534Z,82.54
2023-01-04T08:07:07.173Z,82.82
2023-01-04T08:09:33.681Z,82.91
2023-01-04T08:12:00.649Z,83.02
2023-01-04T08:14:27.243Z,82.85
2023-01-04T08:16:53.673Z,83.11
2023-01-04T08:19:21.760Z,82.89
2023-01-04T08:21:48.852Z,83.31
2023-01-04T08:24:18.163Z,83.14
2023-01-04T08:26:46.002Z,83.26
2023-01-04T08:29:13.351Z,83.13
2023-01-04T08:31:41.094Z,82.99
2023-01-04T08:34:09.247Z,83.07
2023-01-04T08:36:47.432Z,83.05
2023-01-04T08:39:14.494Z,82.86
2023-01-04T08:42:09.880Z,82.76
2023-01-04T08:44:37.779Z,82.42
2023-01-04T08:47:04.470Z,82.37
2023-01-04T08:49:31.195Z,82.45
2023-01-04T08:51:57.703Z,82.31
2023-01-04T08:54:24.257Z,82.50
2023-01-04T08:56:50.965Z,82.27
2023-01-04T08:59:17.428Z,82.08
2023-01-04T09:01:43.956Z,81.77
2023-01-04T09:04:10.576Z,81.99
2023-01-04T09:06:38.236Z,82.04
2023-01-04T09:09:05.293Z,81.94
2023-01-04T09:11:31.658Z,81.86
2023-01-04T09:14:07.166Z,81.68
2023-01-04T09:16:35.656Z,81.84
2023-01-04T09:19:02.102Z,81.86
2023-01-04T09:21:28.622Z,81.94
2023-01-04T09:23:57.583Z,81.96
2023-01-04T09:26:24.561Z,82.07
2023-01-04T09:28:53.320Z,82.07
2023-01-04T09:31:23.248Z,82.24
2023-01-04T09:36:36.256Z,82.43
2023-01-04T09:39:02.899Z,82.61
2023-01-04T09:41:43.258Z,82.33
2023-01-04T09:44:09.522Z,82.46
2023-01-04T09:46:42.184Z,82.62
2023-01-04T09:49:26.542Z,82.77
2023-01-04T09:52:22.946Z,82.62
2023-01-04T09:54:57.613Z,82.85
2023-01-04T09:57:36.499Z,82.99
2023-01-04T10:00:06.050Z,83.02
2023-01-04T10:03:03.173Z,83.31
2023-01-04T10:05:32.429Z,83.16
2023-01-04T10:07:58.770Z,83.44
2023-01-04T10:10:42.573Z,83.16
2023-01-04T10:13:22.265Z,83.19
2023-01-04T10:16:44.356Z,83.37
2023-01-04T10:22:33.154Z,83.40
2023-01-04T10:25:14.518Z,83.51
2023-01-04T10:28:11.967Z,83.29
2023-01-04T10:30:56.574Z,83.44
2023-01-04T10:33:38.496Z,83.49
2023-01-04T10:36:16.945Z,83.49
2023-01-04T10:38:43.548Z,83.63
2023-01-04T10:41:18.156Z,83.50
2023-01-04T10:44:10.551Z,83.51
2023-01-04T10:46:52.696Z,83.46
2023-01-04T10:49:29.034Z,83.99
2023-01-04T10:52:20.534Z,83.73
2023-01-04T10:55:04.303Z,83.77
2023-01-04T10:57:46.700Z,83.91
2023-01-04T11:00:23.392Z,83.78
2023-01-04T11:03:04.897Z,83.64
2023-01-04T11:05:40.840Z,83.77
2023-01-04T11:08:16.932Z,83.58
2023-01-04T11:10:52.522Z,83.58
2023-01-04T11:13:19.215Z,83.77
2023-01-04T11:15:47.754Z,83.90
2023-01-04T11:18:16.222Z,83.90
2023-01-04T11:20:42.848Z,84.17
2023-01-04T11:23:14.571Z,83.54
2023-01-04T11:25:56.183Z,83.55
2023-01-04T11:28:29.811Z,83.66
2023-01-04T11:31:03.934Z,83.69
2023-01-04T11:33:30.460Z,83.79
2023-01-04T11:35:58.948Z,83.71
2023-01-04T11:38:30.489Z,83.57
2023-01-04T11:41:01.755Z,83.67
2023-01-04T11:43:30.850Z,83.73
2023-01-04T11:45:58.854Z,83.49
2023-01-04T11:48:52.470Z,83.20
2023-01-04T11:51:20.514Z,82.99
2023-01-04T11:53:57.741Z,82.97
2023-01-04T11:56:26.364Z,83.35
2023-01-04T11:59:17.752Z,82.88
2023-01-04T12:01:51.716Z,83.38
2023-01-04T12:04:26.164Z,83.00
2023-01-04T12:06:59.952Z,82.89
2023-01-04T12:09:26.528Z,83.27
2023-01-04T12:11:56.155Z,83.45
2023-01-04T12:14:32.560Z,83.14
2023-01-04T12:17:23.417Z,82.89
2023-01-04T12:19:54.467Z,83.12
2023-01-04T12:22:40.505Z,82.94
2023-01-04T12:25:30.385Z,82.87
2023-01-04T12:27:56.987Z,83.39
2023-01-04T12:30:44.397Z,82.82
2023-01-04T12:33:30.015Z,82.86
2023-01-04T12:36:15.928Z,82.79
2023-01-04T12:38:54.443Z,82.92
2023-01-04T12:41:22.720Z,83.27
2023-01-04T12:43:50.064Z,83.35
2023-01-04T12:46:47.448Z,82.93
2023-01-04T12:49:25.814Z,83.02
2023-01-04T12:52:29.457Z,82.83
2023-01-04T12:55:00.376Z,83.06
2023-01-04T12:57:39.776Z,82.98
2023-01-04T13:00:08.317Z,83.44
2023-01-04T13:02:44.141Z,83.25
2023-01-04T13:08:10.177Z,82.91
2023-01-04T13:10:46.836Z,83.34
2023-01-04T13:13:34.751Z,82.57
2023-01-04T13:16:15.846Z,83.35
2023-01-04T13:18:47.443Z,83.51
2023-01-04T13:21:28.363Z,83.28
2023-01-04T13:23:58.207Z,83.06
2023-01-04T13:26:31.485Z,83.04
2023-01-04T13:29:08.419Z,82.45
2023-01-04T13:35:15.465Z,82.96
2023-01-04T13:37:46.487Z,82.40
2023-01-04T13:40:37.379Z,82.29
2023-01-04T13:43:09.479Z,82.49
2023-01-04T13:45:51.006Z,82.01
2023-01-04T13:48:21.462Z,82.23
2023-01-04T13:51:05.073Z,81.20
2023-01-04T13:53:32.758Z,82.22
2023-01-04T13:56:02.261Z,81.92
2023-01-04T13:58:31.509Z,81.89
2023-01-04T14:01:06.943Z,81.74
2023-01-04T14:03:50.157Z,80.41
2023-01-04T14:06:31.563Z,81.07
2023-01-04T14:09:14.380Z,81.90
2023-01-04T14:12:07.357Z,81.82
2023-01-04T14:14:40.231Z,81.28
2023-01-04T14:17:14.626Z,80.69
2023-01-04T14:19:50.647Z,80.98
2023-01-04T14:22:23.253Z,80.43
2023-01-04T14:25:08.863Z,81.40
2023-01-04T14:27:36.945Z,81.15
2023-01-04T14:30:18.517Z,78.98
2023-01-04T14:32:57.287Z,79.23
2023-01-04T14:35:24.708Z,80.99
2023-01-04T14:37:51.919Z,81.19
2023-01-04T14:40:28.125Z,79.56
2023-01-04T14:42:55.190Z,80.68
2023-01-04T14:45:21.614Z,80.27
2023-01-04T14:47:48.139Z,80.53
2023-01-04T14:50:15.321Z,80.57
2023-01-04T14:52:41.788Z,80.31
2023-01-04T14:55:12.878Z,80.30
2023-01-04T14:57:43.185Z,80.33
2023-01-04T15:02:41.158Z,79.92
2023-01-04T15:05:08.507Z,79.78
2023-01-04T15:07:39.720Z,79.42
2023-01-04T15:10:19.434Z,79.51
2023-01-04T15:12:45.935Z,79.73
2023-01-04T15:15:12.519Z,79.73
2023-01-04T15:17:39.094Z,79.47
2023-01-04T15:20:06.600Z,79.45
2023-01-04T15:22:33.244Z,79.36
2023-01-04T15:25:00.108Z,79.18
2023-01-04T15:27:30.927Z,79.15
2023-01-04T15:29:59.834Z,79.26
2023-01-04T15:32:26.569Z,79.25
2023-01-04T15:34:53.136Z,79.29
2023-01-04T15:37:23.924Z,78.47
2023-01-04T15:40:01.974Z,78.82
2023-01-04T15:42:47.599Z,78.77
2023-01-04T15:45:14.102Z,79.00
2023-01-04T15:47:40.561Z,78.82
2023-01-04T15:50:07.253Z,78.91
2023-01-04T15:52:33.960Z,78.97
2023-01-04T15:55:00.602Z,78.63
2023-01-04T15:57:27.114Z,78.52
2023-01-04T15:59:53.655Z,78.66
2023-01-04T16:02:20.401Z,78.63
2023-01-04T16:04:47.338Z,78.27
2023-01-04T16:07:13.964Z,77.85
2023-01-04T16:09:40.516Z,78.14
2023-01-04T16:12:25.773Z,77.94
2023-01-04T16:14:52.803Z,78.03
2023-01-04T16:17:19.631Z,78.03
2023-01-04T16:19:46.184Z,77.73
2023-01-04T16:22:12.726Z,77.92
2023-01-04T16:27:31.190Z,78.02
2023-01-04T16:30:05.609Z,76.86
2023-01-04T16:32:32.097Z,77.67
2023-01-04T16:34:58.649Z,77.82
2023-01-04T16:37:29.245Z,77.53
2023-01-04T16:40:11.143Z,78.13
2023-01-04T16:42:38.440Z,77.86
2023-01-04T16:45:05.671Z,77.92
2023-01-04T16:47:41.129Z,77.07
2023-01-04T16:50:09.617Z,78.03
2023-01-04T16:52:36.276Z,77.95
2023-01-04T16:55:02.955Z,77.76
2023-01-04T16:57:29.537Z,77.92
2023-01-04T16:59:56.205Z,77.95
2023-01-04T17:02:23.353Z,77.69
2023-01-04T17:04:55.396Z,77.75
2023-01-04T17:07:22.127Z,77.58
2023-01-04T17:09:51.781Z,76.45
2023-01-04T17:17:52.651Z,77.42
2023-01-04T17:20:19.228Z,77.69
2023-01-04T17:22:45.721Z,77.34
2023-01-04T17:25:12.441Z,77.23
2023-01-04T17:27:38.881Z,77.21
2023-01-04T17:30:05.935Z,77.32
2023-01-04T17:32:32.554Z,77.16
2023-01-04T17:34:59.077Z,77.22
2023-01-04T17:37:26.016Z,77.30
2023-01-04T17:39:52.603Z,77.00
2023-01-04T17:42:19.285Z,76.79
2023-01-04T17:44:49.369Z,76.78
2023-01-04T17:47:15.913Z,77.01
2023-01-04T17:49:42.450Z,76.81
2023-01-04T17:52:10.297Z,76.92
2023-01-04T17:54:39.609Z,76.91
2023-01-04T17:57:06.111Z,76.78
2023-01-04T17:59:32.767Z,76.91
2023-01-04T18:01:59.398Z,76.90
2023-01-04T18:04:25.955Z,77.00
2023-01-04T18:06:52.438Z,77.12
2023-01-04T18:09:22.303Z,77.43
2023-01-04T18:11:51.071Z,77.44
2023-01-04T18:14:17.646Z,77.16
2023-01-04T18:16:57.175Z,77.63
2023-01-04T18:19:30.696Z,76.28
2023-01-04T18:21:57.765Z,77.94
2023-01-04T18:24:41.620Z,77.71
2023-01-04T18:27:26.938Z,77.70
2023-01-04T18:29:56.071Z,77.70
2023-01-04T18:32:24.483Z,77.62
2023-01-04T18:34:51.125Z,77.57
2023-01-04T18:37:19.004Z,77.52
2023-01-04T18:39:46.303Z,77.55
2023-01-04T18:42:12.894Z,77.30
2023-01-04T18:44:44.149Z,77.06
2023-01-04T18:47:14.900Z,76.89
2023-01-04T18:49:41.535Z,76.94
2023-01-04T18:52:08.181Z,77.01
2023-01-04T18:54:34.765Z,76.85
2023-01-04T18:57:01.839Z,77.07
2023-01-04T18:59:32.159Z,76.67
2023-01-04T19:02:01.502Z,76.87
2023-01-04T19:04:30.349Z,76.83
2023-01-04T19:06:56.936Z,75.86
2023-01-04T19:09:23.475Z,76.38
2023-01-04T19:11:50.077Z,76.77
2023-01-04T19:14:17.013Z,76.57
2023-01-04T19:16:43.661Z,76.76
2023-01-04T19:19:10.673Z,76.55
2023-01-04T19:21:37.765Z,76.75
2023-01-04T19:24:04.535Z,76.29
2023-01-04T19:26:30.994Z,76.38
2023-01-04T19:28:57.550Z,76.30
2023-01-04T19:31:24.094Z,76.63
2023-01-04T19:33:50.546Z,76.47
2023-01-04T19:36:19.199Z,76.36
2023-01-04T19:38:45.970Z,76.68
2023-01-04T19:41:20.878Z,75.56
2023-01-04T19:43:47.615Z,76.33
2023-01-04T19:46:14.560Z,76.50
2023-01-04T19:48:41.433Z,76.25
2023-01-04T19:51:16.085Z,75.44
2023-01-04T19:53:44.295Z,76.52
2023-01-04T19:56:12.777Z,76.37
2023-01-04T19:58:39.744Z,76.70
2023-01-04T20:01:07.368Z,76.56
2023-01-04T20:03:33.964Z,76.50
2023-01-04T20:06:03.246Z,76.21
2023-01-04T20:08:29.773Z,76.26
2023-01-04T20:10:58.186Z,75.62
2023-01-04T20:13:24.703Z,76.31
2023-01-04T20:15:52.063Z,74.57
2023-01-04T20:18:19.289Z,75.72
2023-01-04T20:20:46.376Z,75.52
2023-01-04T20:23:14.277Z,74.90
2023-01-04T20:25:46.125Z,76.09
2023-01-04T20:28:13.508Z,75.85
2023-01-04T20:30:40.164Z,75.94
2023-01-04T20:33:07.432Z,75.96
2023-01-04T20:35:37.891Z,75.17
2023-01-04T20:38:04.381Z,76.07
2023-01-04T20:40:31.067Z,76.07
2023-01-04T20:43:16.064Z,75.97
2023-01-04T20:45:46.940Z,76.14
2023-01-04T20:48:14.907Z,76.03
2023-01-04T20:50:42.380Z,76.20
2023-01-04T20:53:09.094Z,75.90
2023-01-04T20:55:40.524Z,74.23
2023-01-04T20:58:10.833Z,76.48
2023-01-04T21:00:37.907Z,76.25
2023-01-04T21:03:05.854Z,76.85
2023-01-04T21:05:43.954Z,73.31
2023-01-04T21:08:12.132Z,76.48
2023-01-04T21:10:43.468Z,75.65
2023-01-04T21:13:11.654Z,76.65
2023-01-04T21:15:39.189Z,76.46
2023-01-04T21:18:06.538Z,76.75
2023-01-04T21:20:33.007Z,76.50
2023-01-04T21:22:59.440Z,76.64
2023-01-04T21:25:25.821Z,76.36
2023-01-04T21:27:52.242Z,76.62
2023-01-04T21:30:18.600Z,76.49
2023-01-04T21:32:44.987Z,76.73
2023-01-04T21:35:11.433Z,76.83
2023-01-04T21:37:37.820Z,76.84
2023-01-04T21:40:04.667Z,76.73
2023-01-04T21:42:31.109Z,76.82
2023-01-04T21:44:57.761Z,76.65
2023-01-04T21:47:24.101Z,77.00
2023-01-04T21:49:50.697Z,76.25
2023-01-04T21:52:17.046Z,76.60
2023-01-04T21:54:44.309Z,76.67
2023-01-04T21:57:10.654Z,76.95
2023-01-04T21:59:37.252Z,76.57
2023-01-04T22:02:04.795Z,76.62
2023-01-04T22:04:33.248Z,75.58
2023-01-04T22:06:59.638Z,76.59
2023-01-04T22:09:26.109Z,76.68
2023-01-04T22:11:52.632Z,76.49
2023-01-04T22:14:19.147Z,76.55
2023-01-04T22:16:45.632Z,76.51
2023-01-04T22:19:13.232Z,76.27
2023-01-04T22:21:40.000Z,76.06
2023-01-04T22:24:07.171Z,76.12
2023-01-04T22:26:34.264Z,76.36
2023-01-04T22:29:01.438Z,76.21
2023-01-04T22:31:27.820Z,76.49
2023-01-04T22:33:56.269Z,76.68
2023-01-04T22:36:23.758Z,76.90
2023-01-04T22:38:55.640Z,76.89
2023-01-04T22:41:24.767Z,77.54
2023-01-04T22:43:56.835Z,77.50
2023-01-04T22:46:24.573Z,77.86
2023-01-04T22:48:51.091Z,77.67
2023-01-04T22:51:19.487Z,78.01
2023-01-04T22:53:46.120Z,78.25
2023-01-04T22:56:20.760Z,78.21
2023-01-04T22:58:53.140Z,78.45
2023-01-04T23:01:22.054Z,78.30
2023-01-04T23:03:48.891Z,78.44
2023-01-04T23:06:15.687Z,78.65
2023-01-04T23:08:42.286Z,78.55
2023-01-04T23:11:11.868Z,78.44
2023-01-04T23:13:38.354Z,78.66
2023-01-04T23:16:10.362Z,78.24
2023-01-04T23:18:37.503Z,78.67
2023-01-04T23:21:04.614Z,78.61
2023-01-04T23:23:31.192Z,78.56
2023-01-04T23:25:57.570Z,78.75
2023-01-04T23:28:23.972Z,78.56
2023-01-04T23:30:50.330Z,78.54
2023-01-04T23:33:16.841Z,78.42
2023-01-04T23:35:43.224Z,78.59
2023-01-04T23:38:09.641Z,78.51
2023-01-04T23:40:36.034Z,78.46
2023-01-04T23:43:02.395Z,78.25
2023-01-04T23:45:28.840Z,78.34
2023-01-04T23:47:55.256Z,78.20
2023-01-04T23:50:22.121Z,78.21
2023-01-04T23:52:48.741Z,78.23
2023-01-04T23:55:15.239Z,78.21
2023-01-04T23:57:41.563Z,78.14
